createdAt,value
2024-03-02T00:01:38.174Z,77.27
2024-03-02T00:04:08.226Z,77.29
2024-03-02T00:06:36.599Z,77.21
2024-03-02T00:09:04.873Z,77.25
2024-03-02T00:11:37.252Z,77.22
2024-03-02T00:14:05.520Z,77.15
2024-03-02T00:16:33.996Z,77.01
2024-03-02T00:19:07.248Z,76.87
2024-03-02T00:21:36.180Z,76.83
2024-03-02T00:24:35.292Z,76.72
2024-03-02T00:27:05.398Z,76.64
2024-03-02T00:29:33.569Z,76.51
2024-03-02T00:32:02.467Z,76.53
2024-03-02T00:34:30.637Z,76.54
2024-03-02T00:37:01.292Z,76.53
2024-03-02T00:39:30.361Z,76.45
2024-03-02T00:41:58.524Z,76.39
2024-03-02T00:44:35.510Z,76.32
2024-03-02T00:47:04.390Z,76.35
2024-03-02T00:49:32.569Z,76.29
2024-03-02T00:52:00.796Z,76.18
2024-03-02T00:54:30.282Z,76.10
2024-03-02T00:56:58.621Z,76.04
2024-03-02T00:59:28.427Z,76.05
2024-03-02T01:01:56.635Z,75.97
2024-03-02T01:04:26.212Z,75.92
2024-03-02T01:06:54.541Z,75.93
2024-03-02T01:09:22.785Z,75.86
2024-03-02T01:11:51.141Z,75.84
2024-03-02T01:14:19.320Z,75.82
2024-03-02T01:16:47.486Z,75.87
2024-03-02T01:19:16.358Z,75.91
2024-03-02T01:21:44.798Z,75.90
2024-03-02T01:24:14.765Z,75.86
2024-03-02T01:26:43.046Z,75.90
2024-03-02T01:29:11.120Z,75.87
2024-03-02T01:31:41.124Z,75.86
2024-03-02T01:34:09.838Z,75.87
2024-03-02T01:36:38.018Z,75.90
2024-03-02T01:39:10.267Z,75.90
2024-03-02T01:41:38.552Z,75.83
2024-03-02T01:44:06.921Z,75.77
2024-03-02T01:46:36.237Z,75.75
2024-03-02T01:49:04.430Z,75.84
2024-03-02T01:51:33.096Z,75.84
2024-03-02T01:54:01.253Z,75.79
2024-03-02T01:56:29.405Z,75.90
2024-03-02T01:58:57.475Z,75.96
2024-03-02T02:01:25.590Z,75.93
2024-03-02T02:03:53.872Z,75.83
2024-03-02T02:06:22.978Z,75.77
2024-03-02T02:08:51.189Z,75.74
2024-03-02T02:11:19.476Z,75.71
2024-03-02T02:13:47.639Z,75.73
2024-03-02T02:16:15.826Z,75.77
2024-03-02T02:18:44.348Z,75.82
2024-03-02T02:21:12.566Z,75.80
2024-03-02T02:23:40.836Z,75.71
2024-03-02T02:26:09.022Z,75.69
2024-03-02T02:28:37.412Z,75.73
2024-03-02T02:31:05.601Z,75.58
2024-03-02T02:33:33.986Z,75.52
2024-03-02T02:36:02.316Z,75.40
2024-03-02T02:38:30.616Z,75.31
2024-03-02T02:40:59.219Z,75.27
2024-03-02T02:43:27.445Z,75.27
2024-03-02T02:45:55.918Z,75.29
2024-03-02T02:48:24.269Z,75.28
2024-03-02T02:50:52.577Z,75.29
2024-03-02T02:53:20.653Z,75.27
2024-03-02T02:55:48.833Z,75.21
2024-03-02T02:58:17.197Z,75.18
2024-03-02T03:00:45.520Z,75.16
2024-03-02T03:03:13.752Z,75.25
2024-03-02T03:05:41.949Z,75.28
2024-03-02T03:08:10.154Z,75.29
2024-03-02T03:10:38.401Z,75.13
2024-03-02T03:13:09.526Z,75.17
2024-03-02T03:15:38.039Z,75.13
2024-03-02T03:18:06.560Z,75.15
2024-03-02T03:20:35.153Z,75.14
2024-03-02T03:23:05.149Z,75.21
2024-03-02T03:25:33.239Z,75.29
2024-03-02T03:28:02.609Z,75.31
2024-03-02T03:30:30.906Z,75.40
2024-03-02T03:32:59.089Z,75.53
2024-03-02T03:35:27.259Z,75.57
2024-03-02T03:37:55.839Z,75.67
2024-03-02T03:40:23.914Z,75.73
2024-03-02T03:42:52.336Z,75.79
2024-03-02T03:45:21.535Z,75.75
2024-03-02T03:47:49.892Z,75.69
2024-03-02T03:50:18.137Z,75.72
2024-03-02T03:52:46.207Z,75.65
2024-03-02T03:55:15.107Z,75.60
2024-03-02T03:57:43.284Z,75.51
2024-03-02T04:00:12.661Z,75.65
2024-03-02T04:02:41.052Z,75.55
2024-03-02T04:05:12.625Z,75.64
2024-03-02T04:07:42.115Z,75.61
2024-03-02T04:10:11.673Z,75.59
2024-03-02T04:12:40.598Z,75.50
2024-03-02T04:15:09.738Z,75.39
2024-03-02T04:17:38.485Z,75.39
2024-03-02T04:20:08.054Z,75.25
2024-03-02T04:22:37.203Z,75.15
2024-03-02T04:25:09.068Z,75.17
2024-03-02T04:27:37.625Z,75.12
2024-03-02T04:30:07.079Z,75.08
2024-03-02T04:32:35.513Z,75.10
2024-03-02T04:35:03.788Z,75.06
2024-03-02T04:37:34.582Z,75.04
2024-03-02T04:40:02.860Z,75.04
2024-03-02T04:42:31.300Z,75.00
2024-03-02T04:44:59.446Z,75.06
2024-03-02T04:47:27.625Z,75.05
2024-03-02T04:49:55.990Z,74.99
2024-03-02T04:52:24.162Z,74.87
2024-03-02T04:55:11.280Z,74.83
2024-03-02T04:57:39.513Z,74.83
2024-03-02T05:00:10.145Z,74.77
2024-03-02T05:02:38.472Z,74.77
2024-03-02T05:05:07.445Z,74.71
2024-03-02T05:07:36.031Z,74.57
2024-03-02T05:10:04.713Z,74.47
2024-03-02T05:12:45.165Z,74.36
2024-03-02T05:15:15.132Z,74.29
2024-03-02T05:17:46.567Z,74.23
2024-03-02T05:20:15.131Z,74.19
2024-03-02T05:22:43.390Z,74.18
2024-03-02T05:25:12.145Z,74.08
2024-03-02T05:27:41.057Z,73.99
2024-03-02T05:30:10.108Z,73.88
2024-03-02T05:32:38.776Z,73.85
2024-03-02T05:35:07.737Z,73.76
2024-03-02T05:37:35.921Z,73.56
2024-03-02T05:40:04.710Z,73.43
2024-03-02T05:42:32.982Z,73.31
2024-03-02T05:45:01.177Z,73.32
2024-03-02T05:47:29.534Z,73.36
2024-03-02T05:49:57.999Z,73.49
2024-03-02T05:52:26.175Z,73.71
2024-03-02T05:54:54.600Z,73.82
2024-03-02T05:57:41.834Z,73.93
2024-03-02T06:00:10.455Z,73.89
2024-03-02T06:02:44.678Z,73.85
2024-03-02T06:05:12.948Z,73.86
2024-03-02T06:07:41.302Z,73.95
2024-03-02T06:10:13.888Z,73.90
2024-03-02T06:12:42.986Z,73.82
2024-03-02T06:15:12.329Z,73.76
2024-03-02T06:17:40.840Z,73.62
2024-03-02T06:20:10.034Z,73.50
2024-03-02T06:22:38.581Z,73.50
2024-03-02T06:25:07.408Z,73.60
2024-03-02T06:27:35.981Z,73.54
2024-03-02T06:30:05.479Z,73.36
2024-03-02T06:32:34.182Z,73.31
2024-03-02T06:35:02.742Z,73.46
2024-03-02T06:37:31.035Z,73.43
2024-03-02T06:39:59.322Z,73.26
2024-03-02T06:42:27.778Z,72.98
2024-03-02T06:44:55.923Z,72.82
2024-03-02T06:47:24.197Z,72.89
2024-03-02T06:49:52.681Z,72.77
2024-03-02T06:52:24.896Z,72.65
2024-03-02T06:54:53.684Z,72.60
2024-03-02T06:57:22.411Z,72.60
2024-03-02T06:59:52.746Z,72.52
2024-03-02T07:02:21.646Z,72.59
2024-03-02T07:04:50.165Z,72.50
2024-03-02T07:07:18.773Z,72.41
2024-03-02T07:09:47.186Z,72.12
2024-03-02T07:12:15.638Z,72.05
2024-03-02T07:15:12.881Z,71.77
2024-03-02T07:17:41.249Z,71.68
2024-03-02T07:20:10.264Z,71.66
2024-03-02T07:22:41.079Z,71.67
2024-03-02T07:26:54.596Z,71.42
2024-03-02T07:27:58.862Z,71.18
2024-03-02T07:30:27.266Z,70.75
2024-03-02T07:32:55.542Z,70.67
2024-03-02T07:35:27.964Z,70.26
2024-03-02T07:37:56.854Z,70.06
2024-03-02T07:40:25.525Z,69.88
2024-03-02T07:42:53.820Z,69.59
2024-03-02T07:45:22.251Z,69.56
2024-03-02T07:47:51.376Z,69.01
2024-03-02T07:50:19.769Z,68.66
2024-03-02T07:52:47.852Z,68.58
2024-03-02T07:55:16.036Z,68.13
2024-03-02T07:57:44.399Z,68.04
2024-03-02T08:00:13.169Z,67.38
2024-03-02T08:02:41.643Z,66.94
2024-03-02T08:05:10.326Z,66.84
2024-03-02T08:07:38.806Z,66.93
2024-03-02T08:10:07.572Z,66.50
2024-03-02T08:12:35.886Z,66.61
2024-03-02T08:15:05.343Z,66.28
2024-03-02T08:17:36.013Z,65.89
2024-03-02T08:20:07.123Z,65.98
2024-03-02T08:22:35.209Z,65.68
2024-03-02T08:25:03.747Z,65.14
2024-03-02T08:27:33.710Z,65.12
2024-03-02T08:30:02.136Z,65.10
2024-03-02T08:32:30.411Z,64.72
2024-03-02T08:34:58.632Z,64.44
2024-03-02T08:37:26.701Z,63.84
2024-03-02T08:39:55.037Z,63.67
2024-03-02T08:42:23.788Z,63.62
2024-03-02T08:44:52.046Z,63.04
2024-03-02T08:47:20.210Z,62.33
2024-03-02T08:49:48.281Z,62.28
2024-03-02T08:52:16.356Z,62.15
2024-03-02T08:54:44.440Z,62.25
2024-03-02T08:57:12.701Z,61.71
2024-03-02T08:59:41.078Z,61.24
2024-03-02T09:02:09.247Z,60.57
2024-03-02T09:04:37.419Z,60.60
2024-03-02T09:07:05.680Z,60.70
2024-03-02T09:09:34.014Z,61.36
2024-03-02T09:12:02.396Z,61.34
2024-03-02T09:14:30.621Z,59.81
2024-03-02T09:16:58.912Z,58.65
2024-03-02T09:19:27.173Z,58.75
2024-03-02T09:21:56.946Z,59.16
2024-03-02T09:24:25.869Z,59.28
2024-03-02T09:26:54.062Z,60.08
2024-03-02T09:29:22.382Z,60.63
2024-03-02T09:31:52.127Z,60.73
2024-03-02T09:34:20.435Z,60.98
2024-03-02T09:36:48.684Z,62.01
2024-03-02T09:39:17.159Z,62.41
2024-03-02T09:41:45.533Z,61.90
2024-03-02T09:44:13.913Z,62.04
2024-03-02T09:46:45.326Z,61.38
2024-03-02T09:49:14.149Z,60.24
2024-03-02T09:51:48.540Z,59.02
2024-03-02T09:54:22.232Z,58.51
2024-03-02T09:56:52.541Z,58.80
2024-03-02T09:59:22.028Z,59.29
2024-03-02T10:02:01.268Z,59.59
2024-03-02T10:04:32.307Z,59.81
2024-03-02T10:07:20.010Z,59.53
2024-03-02T10:09:53.326Z,60.22
2024-03-02T10:12:22.313Z,59.90
2024-03-02T10:14:52.929Z,60.25
2024-03-02T10:17:21.090Z,59.41
2024-03-02T10:19:49.258Z,59.40
2024-03-02T10:22:17.436Z,59.41
2024-03-02T10:24:47.058Z,58.92
2024-03-02T10:27:24.160Z,59.08
2024-03-02T10:29:52.491Z,58.87
2024-03-02T10:32:23.946Z,58.29
2024-03-02T10:34:52.127Z,58.40
2024-03-02T10:37:23.069Z,58.77
2024-03-02T10:39:51.360Z,58.68
2024-03-02T10:42:20.691Z,58.18
2024-03-02T10:44:50.040Z,57.83
2024-03-02T10:47:20.761Z,57.57
2024-03-02T10:49:53.056Z,57.64
2024-03-02T10:52:21.199Z,56.94
2024-03-02T10:54:49.717Z,57.37
2024-03-02T10:57:18.471Z,57.02
2024-03-02T10:59:58.761Z,56.62
2024-03-02T11:02:29.043Z,56.63
2024-03-02T11:04:57.562Z,57.06
2024-03-02T11:07:26.532Z,56.51
2024-03-02T11:10:10.205Z,56.21
2024-03-02T11:13:03.411Z,55.79
2024-03-02T11:15:31.931Z,56.16
2024-03-02T11:18:00.498Z,56.07
2024-03-02T11:20:30.162Z,56.34
2024-03-02T11:22:58.256Z,56.09
2024-03-02T11:25:29.614Z,55.92
2024-03-02T11:27:57.754Z,55.86
2024-03-02T11:30:36.121Z,55.75
2024-03-02T11:33:13.397Z,55.81
2024-03-02T11:35:49.661Z,55.48
2024-03-02T11:38:19.745Z,55.71
2024-03-02T11:40:48.175Z,55.43
2024-03-02T11:43:16.713Z,55.54
2024-03-02T11:45:45.848Z,55.84
2024-03-02T11:48:17.765Z,55.90
2024-03-02T11:50:51.839Z,55.72
2024-03-02T11:53:21.797Z,55.61
2024-03-02T11:55:50.770Z,55.94
2024-03-02T11:58:25.090Z,56.02
2024-03-02T12:00:54.077Z,56.18
2024-03-02T12:03:27.267Z,56.15
2024-03-02T12:05:56.731Z,55.92
2024-03-02T12:08:25.897Z,55.45
2024-03-02T12:11:02.712Z,55.43
2024-03-02T12:13:32.481Z,54.82
2024-03-02T12:16:01.144Z,54.51
2024-03-02T12:18:29.773Z,54.60
2024-03-02T12:20:59.999Z,54.39
2024-03-02T12:23:28.879Z,54.30
2024-03-02T12:25:57.833Z,54.65
2024-03-02T12:28:26.416Z,54.70
2024-03-02T12:30:54.903Z,53.83
2024-03-02T12:33:24.301Z,53.72
2024-03-02T12:35:52.607Z,54.20
2024-03-02T12:38:21.175Z,54.30
2024-03-02T12:40:50.982Z,54.10
2024-03-02T12:43:19.539Z,53.55
2024-03-02T12:45:48.194Z,53.45
2024-03-02T12:48:16.611Z,53.59
2024-03-02T12:50:45.664Z,53.55
2024-03-02T12:53:17.983Z,53.24
2024-03-02T12:55:46.461Z,53.44
2024-03-02T12:58:20.009Z,53.82
2024-03-02T13:00:48.724Z,53.88
2024-03-02T13:03:21.162Z,53.95
2024-03-02T13:05:51.272Z,53.04
2024-03-02T13:08:19.326Z,53.33
2024-03-02T13:10:47.824Z,53.60
2024-03-02T13:13:16.265Z,53.84
2024-03-02T13:15:46.441Z,54.40
2024-03-02T13:18:14.900Z,54.61
2024-03-02T13:20:43.124Z,55.22
2024-03-02T13:23:11.605Z,55.39
2024-03-02T13:25:39.778Z,55.22
2024-03-02T13:28:08.844Z,55.08
2024-03-02T13:30:37.268Z,55.26
2024-03-02T13:33:06.042Z,55.57
2024-03-02T13:35:34.212Z,56.05
2024-03-02T13:38:02.587Z,56.61
2024-03-02T13:40:32.090Z,57.00
2024-03-02T13:43:00.290Z,57.10
2024-03-02T13:45:29.289Z,57.58
2024-03-02T13:47:57.636Z,57.73
2024-03-02T13:50:25.802Z,58.05
2024-03-02T13:52:53.880Z,58.47
2024-03-02T13:55:22.043Z,58.89
2024-03-02T13:57:51.453Z,59.39
2024-03-02T14:00:20.336Z,59.75
2024-03-02T14:02:51.071Z,60.07
2024-03-02T14:05:20.668Z,59.93
2024-03-02T14:07:48.745Z,60.28
2024-03-02T14:10:17.267Z,60.26
2024-03-02T14:12:45.535Z,60.25
2024-03-02T14:15:13.772Z,60.49
2024-03-02T14:17:42.070Z,60.55
2024-03-02T14:20:14.738Z,60.44
2024-03-02T14:22:42.898Z,60.61
2024-03-02T14:25:11.302Z,60.79
2024-03-02T14:30:12.846Z,60.77
2024-03-02T14:32:41.037Z,61.04
2024-03-02T14:35:12.819Z,61.39
2024-03-02T14:37:41.151Z,61.46
2024-03-02T14:40:11.092Z,61.58
2024-03-02T14:42:39.472Z,61.81
2024-03-02T14:45:07.816Z,62.87
2024-03-02T14:47:36.785Z,63.88
2024-03-02T14:50:07.552Z,63.83
2024-03-02T14:52:35.814Z,62.95
2024-03-02T14:55:05.540Z,62.79
2024-03-02T14:57:33.725Z,62.42
2024-03-02T15:00:01.971Z,61.87
2024-03-02T15:02:30.357Z,61.02
2024-03-02T15:04:58.734Z,60.91
2024-03-02T15:07:27.214Z,59.96
2024-03-02T15:09:56.340Z,59.14
2024-03-02T15:12:24.969Z,59.26
2024-03-02T15:14:53.160Z,59.94
2024-03-02T15:17:21.435Z,60.48
2024-03-02T15:19:49.616Z,61.15
2024-03-02T15:22:18.399Z,62.63
2024-03-02T15:24:46.602Z,63.96
2024-03-02T15:27:14.747Z,63.89
2024-03-02T15:29:42.921Z,63.77
2024-03-02T15:32:11.286Z,63.41
2024-03-02T15:34:39.638Z,63.14
2024-03-02T15:37:07.943Z,63.03
2024-03-02T15:39:36.286Z,62.80
2024-03-02T15:42:06.160Z,62.59
2024-03-02T15:44:34.414Z,62.41
2024-03-02T15:47:02.881Z,62.25
2024-03-02T15:49:33.305Z,62.20
2024-03-02T15:52:04.873Z,62.09
2024-03-02T15:54:33.256Z,61.95
2024-03-02T15:57:01.613Z,61.82
2024-03-02T15:59:29.786Z,61.81
2024-03-02T16:01:59.805Z,61.82
2024-03-02T16:04:28.082Z,61.90
2024-03-02T16:06:56.385Z,61.87
2024-03-02T16:09:24.672Z,61.96
2024-03-02T16:11:53.415Z,61.93
2024-03-02T16:14:21.720Z,62.11
2024-03-02T16:16:49.860Z,62.01
2024-03-02T16:19:25.764Z,61.98
2024-03-02T16:22:01.146Z,62.22
2024-03-02T16:24:29.593Z,62.20
2024-03-02T16:26:58.326Z,62.57
2024-03-02T16:29:26.499Z,62.62
2024-03-02T16:31:54.673Z,62.70
2024-03-02T16:34:22.978Z,62.70
2024-03-02T16:36:51.273Z,62.65
2024-03-02T16:39:19.591Z,62.78
2024-03-02T16:41:48.438Z,63.04
2024-03-02T16:44:16.964Z,63.08
2024-03-02T16:46:46.688Z,63.23
2024-03-02T16:49:15.083Z,63.24
2024-03-02T16:51:44.346Z,63.32
2024-03-02T16:54:12.619Z,63.47
2024-03-02T16:56:44.402Z,63.75
2024-03-02T16:59:12.666Z,63.77
2024-03-02T17:01:41.177Z,63.95
2024-03-02T17:04:09.658Z,63.91
2024-03-02T17:06:38.042Z,64.01
2024-03-02T17:09:06.777Z,64.05
2024-03-02T17:11:36.537Z,64.15
2024-03-02T17:14:05.081Z,64.23
2024-03-02T17:16:33.138Z,64.46
2024-03-02T17:19:01.831Z,64.66
2024-03-02T17:21:30.514Z,64.67
2024-03-02T17:23:59.663Z,64.96
2024-03-02T17:26:27.982Z,65.21
2024-03-02T17:28:56.264Z,65.11
2024-03-02T17:31:24.428Z,65.28
2024-03-02T17:33:52.721Z,65.64
2024-03-02T17:36:20.975Z,65.69
2024-03-02T17:38:49.263Z,65.85
2024-03-02T17:41:17.625Z,65.87
2024-03-02T17:43:45.900Z,66.00
2024-03-02T17:46:14.158Z,66.03
2024-03-02T17:48:42.891Z,66.06
2024-03-02T17:51:11.336Z,66.07
2024-03-02T17:53:39.620Z,66.07
2024-03-02T17:56:10.964Z,66.14
2024-03-02T17:58:39.574Z,66.10
2024-03-02T18:01:07.885Z,66.12
2024-03-02T18:03:36.495Z,66.10
2024-03-02T18:06:05.870Z,66.13
2024-03-02T18:08:36.056Z,66.07
2024-03-02T18:11:08.018Z,66.08
2024-03-02T18:13:36.384Z,66.14
2024-03-02T18:16:06.035Z,66.44
2024-03-02T18:18:34.326Z,66.41
2024-03-02T18:21:03.859Z,66.32
2024-03-02T18:23:32.545Z,66.40
2024-03-02T18:26:01.133Z,66.39
2024-03-02T18:28:29.354Z,66.49
2024-03-02T18:30:59.757Z,66.49
2024-03-02T18:33:28.052Z,66.46
2024-03-02T18:35:56.774Z,66.76
2024-03-02T18:38:24.952Z,66.67
2024-03-02T18:40:53.118Z,66.63
2024-03-02T18:43:21.498Z,66.70
2024-03-02T18:45:49.822Z,66.67
2024-03-02T18:48:18.092Z,66.62
2024-03-02T18:50:46.318Z,66.67
2024-03-02T18:53:14.804Z,66.73
2024-03-02T18:55:42.972Z,66.72
2024-03-02T18:58:11.073Z,66.67
2024-03-02T19:00:39.767Z,66.62
2024-03-02T19:03:11.002Z,66.64
2024-03-02T19:05:39.765Z,66.55
2024-03-02T19:08:09.354Z,66.53
2024-03-02T19:10:37.659Z,66.66
2024-03-02T19:13:07.310Z,66.68
2024-03-02T19:15:35.681Z,66.63
2024-03-02T19:18:04.612Z,66.61
2024-03-02T19:20:33.099Z,66.66
2024-03-02T19:23:01.711Z,66.73
2024-03-02T19:25:29.974Z,66.73
2024-03-02T19:27:58.465Z,66.77
2024-03-02T19:30:27.218Z,66.72
2024-03-02T19:32:55.645Z,66.85
2024-03-02T19:35:23.875Z,66.84
2024-03-02T19:37:53.272Z,66.84
2024-03-02T19:40:21.442Z,67.03
2024-03-02T19:42:49.674Z,67.15
2024-03-02T19:45:18.046Z,67.27
2024-03-02T19:47:46.170Z,67.39
2024-03-02T19:50:15.531Z,67.38
2024-03-02T19:52:43.848Z,67.43
2024-03-02T19:55:14.172Z,67.49
2024-03-02T19:57:46.115Z,67.45
2024-03-02T20:00:15.807Z,67.46
2024-03-02T20:02:44.030Z,67.49
2024-03-02T20:05:13.438Z,67.47
2024-03-02T20:07:42.749Z,67.50
2024-03-02T20:10:12.624Z,67.51
2024-03-02T20:12:41.101Z,67.52
2024-03-02T20:15:21.068Z,67.52
2024-03-02T20:17:49.374Z,67.61
2024-03-02T20:20:18.011Z,67.68
2024-03-02T20:22:47.205Z,67.78
2024-03-02T20:25:17.110Z,67.92
2024-03-02T20:27:46.479Z,68.00
2024-03-02T20:30:15.119Z,68.12
2024-03-02T20:32:43.836Z,68.16
2024-03-02T20:35:12.786Z,68.32
2024-03-02T20:37:41.369Z,68.28
2024-03-02T20:40:10.384Z,68.34
2024-03-02T20:42:39.316Z,68.32
2024-03-02T20:45:08.661Z,68.33
2024-03-02T20:47:36.830Z,68.36
2024-03-02T20:50:05.637Z,68.40
2024-03-02T20:52:33.987Z,68.44
2024-03-02T20:55:02.134Z,68.48
2024-03-02T20:57:30.534Z,68.53
2024-03-02T20:59:58.816Z,68.66
2024-03-02T21:02:27.551Z,68.80
2024-03-02T21:04:55.888Z,68.89
2024-03-02T21:07:24.072Z,68.89
2024-03-02T21:09:53.978Z,69.11
2024-03-02T21:12:22.344Z,69.18
2024-03-02T21:14:50.608Z,69.27
2024-03-02T21:17:18.775Z,69.22
2024-03-02T21:19:48.487Z,69.29
2024-03-02T21:22:16.988Z,69.31
2024-03-02T21:24:47.348Z,69.29
2024-03-02T21:27:18.519Z,69.32
2024-03-02T21:29:48.303Z,69.36
2024-03-02T21:32:16.628Z,69.37
2024-03-02T21:34:44.800Z,69.41
2024-03-02T21:37:13.152Z,69.38
2024-03-02T21:39:47.022Z,69.44
2024-03-02T21:42:15.965Z,69.41
2024-03-02T21:44:44.448Z,69.34
2024-03-02T21:47:13.852Z,69.31
2024-03-02T21:49:42.027Z,69.27
2024-03-02T21:52:10.640Z,69.17
2024-03-02T21:54:38.899Z,69.16
2024-03-02T21:57:10.637Z,69.02
2024-03-02T21:59:40.547Z,68.90
2024-03-02T22:02:08.902Z,68.85
2024-03-02T22:04:37.511Z,68.77
2024-03-02T22:07:05.808Z,68.72
2024-03-02T22:09:35.562Z,68.52
2024-03-02T22:12:04.018Z,68.36
2024-03-02T22:14:32.248Z,68.57
2024-03-02T22:17:00.549Z,68.51
2024-03-02T22:19:28.911Z,68.64
2024-03-02T22:21:57.204Z,68.69
2024-03-02T22:24:26.265Z,68.72
2024-03-02T22:26:54.451Z,68.64
2024-03-02T22:29:22.612Z,68.91
2024-03-02T22:31:50.992Z,68.86
2024-03-02T22:34:19.400Z,68.91
2024-03-02T22:36:47.655Z,69.02
2024-03-02T22:39:15.814Z,69.08
2024-03-02T22:41:44.396Z,69.03
2024-03-02T22:44:12.676Z,69.16
2024-03-02T22:46:40.841Z,69.20
2024-03-02T22:49:09.038Z,69.54
2024-03-02T22:51:37.256Z,69.91
2024-03-02T22:54:05.469Z,70.01
2024-03-02T22:56:33.745Z,69.80
2024-03-02T22:59:02.339Z,69.73
2024-03-02T23:01:30.630Z,69.69
2024-03-02T23:03:58.787Z,69.54
2024-03-02T23:06:27.866Z,69.34
2024-03-02T23:08:56.034Z,69.34
2024-03-02T23:11:24.439Z,68.93
2024-03-02T23:13:52.698Z,69.06
2024-03-02T23:16:20.888Z,69.32
2024-03-02T23:18:50.157Z,69.28
2024-03-02T23:21:18.442Z,69.16
2024-03-02T23:23:46.605Z,69.14
2024-03-02T23:26:14.791Z,69.43
2024-03-02T23:28:42.954Z,69.65
2024-03-02T23:31:11.201Z,69.86
2024-03-02T23:33:40.078Z,69.88
2024-03-02T23:36:08.286Z,70.24
2024-03-02T23:38:36.366Z,70.72
2024-03-02T23:41:16.220Z,71.44
2024-03-02T23:43:44.387Z,71.98
2024-03-02T23:46:12.900Z,71.87
2024-03-02T23:48:41.267Z,72.04
2024-03-02T23:51:09.510Z,72.08
2024-03-02T23:53:37.684Z,72.02
2024-03-02T23:56:13.740Z,72.03
2024-03-02T23:58:42.225Z,71.92
